createdAt,value
2019-04-05T00:01:12.200Z,66.45
2019-04-05T00:03:43.557Z,62.40
2019-04-05T00:06:15.287Z,61.68
2019-04-05T00:08:46.539Z,59.15
2019-04-05T00:11:17.845Z,54.18
2019-04-05T00:13:49.131Z,53.20
2019-04-05T00:16:20.428Z,54.80
2019-04-05T00:18:51.649Z,51.45
2019-04-05T00:21:22.895Z,52.13
2019-04-05T00:23:54.223Z,53.15
2019-04-05T00:26:25.532Z,52.03
2019-04-05T00:28:56.778Z,54.03
2019-04-05T00:31:28.163Z,55.25
2019-04-05T00:33:59.455Z,56.58
2019-04-05T00:36:30.756Z,61.15
2019-04-05T00:39:02.039Z,60.33
2019-04-05T00:41:34.065Z,62.65
2019-04-05T00:44:05.405Z,62.23
2019-04-05T00:46:36.708Z,62.98
2019-04-05T00:49:09.579Z,61.08
2019-04-05T00:51:40.865Z,59.53
2019-04-05T00:54:12.223Z,62.25
2019-04-05T00:56:43.509Z,59.58
2019-04-05T00:59:14.741Z,58.02
2019-04-05T01:01:46.083Z,55.85
2019-04-05T01:04:17.407Z,54.42
2019-04-05T01:06:48.773Z,54.13
2019-04-05T01:09:20.099Z,53.40
2019-04-05T01:11:51.458Z,51.53
2019-04-05T01:14:23.885Z,53.23
2019-04-05T01:16:56.138Z,52.27
2019-04-05T01:19:28.937Z,52.30
2019-04-05T01:22:00.217Z,51.00
2019-04-05T01:24:31.456Z,50.60
2019-04-05T01:27:03.945Z,53.75
2019-04-05T01:29:35.237Z,51.95
2019-04-05T01:32:06.549Z,52.17
2019-04-05T01:34:37.848Z,52.35
2019-04-05T01:37:10.128Z,54.33
2019-04-05T01:39:41.343Z,57.93
2019-04-05T01:42:12.665Z,54.58
2019-04-05T01:44:43.905Z,55.90
2019-04-05T01:47:15.141Z,55.12
2019-04-05T01:49:46.420Z,53.75
2019-04-05T01:52:17.668Z,52.05
2019-04-05T01:54:49.933Z,52.88
2019-04-05T01:57:21.238Z,52.65
2019-04-05T01:59:52.442Z,52.20
2019-04-05T02:02:23.793Z,52.40
2019-04-05T02:04:55.013Z,52.25
2019-04-05T02:07:26.233Z,53.13
2019-04-05T02:09:57.446Z,51.45
2019-04-05T02:12:28.751Z,53.20
2019-04-05T02:15:01.718Z,52.17
2019-04-05T02:17:35.807Z,53.63
2019-04-05T02:20:07.511Z,56.77
2019-04-05T02:22:38.821Z,57.03
2019-04-05T02:25:10.177Z,53.15
2019-04-05T02:27:41.438Z,58.08
2019-04-05T02:30:12.801Z,59.05
2019-04-05T02:32:44.123Z,57.20
2019-04-05T02:35:15.433Z,51.63
2019-04-05T02:37:46.808Z,48.63
2019-04-05T02:40:19.223Z,49.10
2019-04-05T02:42:51.046Z,51.08
2019-04-05T02:45:22.319Z,47.90
2019-04-05T02:47:55.444Z,48.63
2019-04-05T02:50:27.150Z,47.65
2019-04-05T02:52:59.940Z,45.67
2019-04-05T02:55:31.484Z,43.73
2019-04-05T02:58:02.837Z,45.52
2019-04-05T03:00:34.185Z,43.23
2019-04-05T03:03:05.515Z,45.85
2019-04-05T03:05:37.240Z,42.27
2019-04-05T03:08:08.579Z,44.67
2019-04-05T03:11:05.134Z,43.78
2019-04-05T03:13:40.275Z,44.85
2019-04-05T03:16:20.878Z,44.65
2019-04-05T03:18:54.733Z,45.25
2019-04-05T03:21:26.663Z,45.08
2019-04-05T03:23:59.537Z,43.52
2019-04-05T03:26:32.399Z,43.08
2019-04-05T03:29:07.886Z,43.28
2019-04-05T03:31:40.846Z,41.73
2019-04-05T03:34:12.163Z,43.05
2019-04-05T03:36:43.415Z,43.35
2019-04-05T03:39:14.765Z,42.20
2019-04-05T03:41:50.056Z,41.63
2019-04-05T03:44:23.080Z,39.98
2019-04-05T03:46:57.706Z,40.20
2019-04-05T03:49:27.558Z,40.95
2019-04-05T03:51:58.868Z,40.70
2019-04-05T03:54:31.085Z,39.50
2019-04-05T03:57:05.306Z,42.90
2019-04-05T03:59:38.058Z,53.55
2019-04-05T04:02:10.440Z,58.92
2019-04-05T04:04:41.664Z,63.73
2019-04-05T04:07:13.223Z,66.25
2019-04-05T04:09:45.595Z,62.95
2019-04-05T04:12:16.910Z,65.35
2019-04-05T04:14:48.330Z,65.67
2019-04-05T04:17:20.602Z,62.70
2019-04-05T04:19:52.913Z,60.65
2019-04-05T04:22:28.239Z,59.70
2019-04-05T04:24:59.309Z,56.08
2019-04-05T04:27:31.580Z,54.75
2019-04-05T04:30:03.980Z,56.33
2019-04-05T04:32:35.184Z,52.73
2019-04-05T04:35:06.544Z,55.75
2019-04-05T04:37:37.914Z,54.70
2019-04-05T04:40:09.192Z,56.15
2019-04-05T04:42:40.561Z,56.25
2019-04-05T04:45:12.956Z,55.30
2019-04-05T04:47:44.489Z,54.77
2019-04-05T04:50:15.734Z,53.90
2019-04-05T04:52:46.814Z,52.88
2019-04-05T04:55:18.094Z,53.02
2019-04-05T04:57:49.302Z,54.63
2019-04-05T05:00:20.530Z,50.52
2019-04-05T05:02:51.892Z,47.87
2019-04-05T05:05:23.006Z,48.20
2019-04-05T05:07:54.321Z,49.00
2019-04-05T05:10:25.565Z,50.03
2019-04-05T05:12:56.916Z,48.38
2019-04-05T05:15:28.211Z,52.05
2019-04-05T05:17:59.504Z,49.95
2019-04-05T05:20:30.850Z,51.98
2019-04-05T05:23:03.259Z,53.68
2019-04-05T05:25:34.575Z,53.70
2019-04-05T05:28:05.813Z,55.43
2019-04-05T05:30:37.184Z,53.52
2019-04-05T05:33:08.442Z,51.25
2019-04-05T05:35:39.686Z,50.63
2019-04-05T05:38:11.065Z,54.58
2019-04-05T05:40:42.356Z,54.10
2019-04-05T05:43:13.806Z,51.85
2019-04-05T05:45:45.073Z,51.73
2019-04-05T05:48:16.384Z,52.62
2019-04-05T05:50:47.842Z,55.75
2019-04-05T05:53:19.321Z,55.25
2019-04-05T05:55:52.719Z,55.40
2019-04-05T05:58:25.752Z,56.60
2019-04-05T06:00:57.379Z,53.83
2019-04-05T06:03:28.681Z,55.67
2019-04-05T06:06:04.617Z,56.28
2019-04-05T06:08:33.135Z,53.08
2019-04-05T06:11:04.547Z,52.03
2019-04-05T06:13:35.962Z,53.65
2019-04-05T06:16:08.473Z,52.00
2019-04-05T06:18:40.019Z,50.20
2019-04-05T06:21:11.816Z,50.75
2019-04-05T06:23:43.207Z,50.45
2019-04-05T06:26:14.544Z,52.03
2019-04-05T06:28:45.997Z,51.30
2019-04-05T06:31:17.896Z,50.95
2019-04-05T06:33:49.556Z,49.95
2019-04-05T06:36:21.215Z,48.42
2019-04-05T06:38:54.400Z,47.93
2019-04-05T06:41:26.225Z,45.50
2019-04-05T06:43:59.349Z,37.93
2019-04-05T06:46:31.012Z,33.73
2019-04-05T06:49:02.702Z,34.05
2019-04-05T06:51:34.283Z,38.05
2019-04-05T06:54:06.665Z,39.30
2019-04-05T06:56:39.582Z,38.75
2019-04-05T06:59:11.442Z,37.23
2019-04-05T07:01:43.027Z,41.70
2019-04-05T07:04:14.424Z,44.30
2019-04-05T07:06:45.809Z,45.25
2019-04-05T07:09:17.467Z,47.95
2019-04-05T07:11:48.785Z,46.83
2019-04-05T07:14:20.083Z,40.33
2019-04-05T07:16:51.458Z,42.10
2019-04-05T07:19:22.850Z,42.10
2019-04-05T07:21:54.184Z,48.13
2019-04-05T07:24:25.593Z,32.50
2019-04-05T07:27:00.893Z,40.60
2019-04-05T07:29:32.265Z,39.63
2019-04-05T07:32:03.596Z,41.77
2019-04-05T07:34:34.953Z,33.95
2019-04-05T07:37:06.319Z,27.37
2019-04-05T07:39:37.735Z,15.03
2019-04-05T07:42:09.115Z,23.30
2019-04-05T07:44:40.493Z,20.17
2019-04-05T07:47:11.797Z,18.95
2019-04-05T07:49:44.190Z,19.98
2019-04-05T07:52:15.502Z,16.60
2019-04-05T07:54:48.177Z,16.52
2019-04-05T07:57:19.599Z,13.93
2019-04-05T07:59:51.227Z,16.20
2019-04-05T08:02:24.780Z,16.00
2019-04-05T08:04:56.349Z,16.40
2019-04-05T08:07:32.888Z,15.78
2019-04-05T08:10:07.332Z,15.60
2019-04-05T08:12:41.249Z,13.98
2019-04-05T08:15:14.621Z,14.53
2019-04-05T08:20:20.399Z,17.32
2019-04-05T08:22:52.044Z,18.73
2019-04-05T08:25:23.491Z,20.00
2019-04-05T08:27:54.820Z,20.97
2019-04-05T08:30:27.165Z,19.23
2019-04-05T08:32:58.939Z,19.05
2019-04-05T08:35:30.322Z,17.80
2019-04-05T08:38:02.035Z,16.15
2019-04-05T08:40:33.383Z,15.48
2019-04-05T08:43:05.487Z,8.68
2019-04-05T08:45:36.834Z,8.20
2019-04-05T08:48:08.232Z,10.18
2019-04-05T08:50:39.806Z,11.78
2019-04-05T08:53:13.495Z,10.45
2019-04-05T08:55:44.981Z,15.10
2019-04-05T08:58:16.293Z,15.83
2019-04-05T09:00:47.737Z,14.23
2019-04-05T09:06:30.496Z,14.93
2019-04-05T09:09:01.650Z,15.72
2019-04-05T09:11:36.858Z,15.38
2019-04-05T09:14:09.418Z,15.15
2019-04-05T09:16:40.883Z,15.80
2019-04-05T09:19:23.838Z,14.68
2019-04-05T09:21:59.373Z,15.48
2019-04-05T09:24:30.795Z,15.28
2019-04-05T09:27:02.125Z,17.20
2019-04-05T09:29:34.590Z,15.78
2019-04-05T09:32:07.021Z,15.72
2019-04-05T09:34:38.320Z,16.20
2019-04-05T09:37:10.872Z,15.35
2019-04-05T09:39:42.270Z,15.78
2019-04-05T09:42:14.609Z,14.53
2019-04-05T09:44:45.980Z,14.80
2019-04-05T09:47:17.457Z,14.10
2019-04-05T09:49:48.890Z,14.00
2019-04-05T09:52:20.252Z,11.28
2019-04-05T09:54:51.676Z,12.25
2019-04-05T09:57:23.419Z,11.55
2019-04-05T09:59:55.226Z,12.23
2019-04-05T10:02:26.723Z,11.20
2019-04-05T10:04:58.300Z,11.48
2019-04-05T10:07:30.755Z,11.93
2019-04-05T10:10:02.159Z,10.93
2019-04-05T10:12:34.738Z,11.68
2019-04-05T10:15:07.660Z,12.95
2019-04-05T10:17:39.026Z,12.55
2019-04-05T10:20:10.451Z,12.60
2019-04-05T10:22:43.953Z,14.00
2019-04-05T10:25:15.602Z,12.80
2019-04-05T10:27:47.113Z,13.08
2019-04-05T10:30:20.880Z,12.75
2019-04-05T10:32:52.307Z,12.28
2019-04-05T10:35:23.697Z,12.53
2019-04-05T10:40:39.713Z,12.23
2019-04-05T10:43:11.809Z,11.85
2019-04-05T10:45:43.347Z,12.00
2019-04-05T10:48:14.793Z,11.30
2019-04-05T10:50:46.310Z,12.88
2019-04-05T10:53:26.736Z,12.70
2019-04-05T10:55:59.042Z,13.10
2019-04-05T10:58:30.423Z,11.90
2019-04-05T11:01:01.850Z,12.80
2019-04-05T11:03:33.303Z,12.95
2019-04-05T11:06:04.813Z,11.18
2019-04-05T11:08:36.177Z,11.65
2019-04-05T11:11:07.856Z,12.00
2019-04-05T11:13:41.429Z,12.30
2019-04-05T11:16:12.915Z,11.38
2019-04-05T11:18:45.180Z,11.88
2019-04-05T11:21:22.165Z,12.70
2019-04-05T11:23:57.455Z,12.50
2019-04-05T11:26:30.509Z,12.65
2019-04-05T11:29:01.946Z,13.05
2019-04-05T11:31:33.356Z,12.70
2019-04-05T11:34:04.760Z,12.55
2019-04-05T11:36:37.175Z,11.70
2019-04-05T11:39:11.080Z,12.60
2019-04-05T11:41:42.812Z,12.93
2019-04-05T11:44:21.588Z,13.45
2019-04-05T11:46:52.999Z,11.03
2019-04-05T11:49:24.321Z,10.72
2019-04-05T11:55:04.565Z,10.50
2019-04-05T11:57:35.445Z,10.78
2019-04-05T12:00:35.813Z,10.23
2019-04-05T12:03:16.236Z,10.45
2019-04-05T12:05:47.672Z,10.13
2019-04-05T12:08:19.110Z,11.03
2019-04-05T12:10:50.500Z,10.78
2019-04-05T12:13:21.921Z,11.43
2019-04-05T12:15:53.400Z,11.57
2019-04-05T12:18:24.644Z,13.62
2019-04-05T12:21:00.325Z,11.50
2019-04-05T12:23:33.380Z,11.10
2019-04-05T12:26:04.880Z,15.43
2019-04-05T12:28:37.531Z,12.75
2019-04-05T12:31:08.923Z,12.37
2019-04-05T12:33:40.210Z,12.13
2019-04-05T12:36:11.638Z,11.90
2019-04-05T12:38:44.848Z,11.05
2019-04-05T12:41:18.232Z,10.45
2019-04-05T12:43:51.159Z,10.65
2019-04-05T12:46:22.435Z,11.63
2019-04-05T12:48:53.836Z,11.75
2019-04-05T12:51:25.096Z,12.10
2019-04-05T12:53:57.377Z,11.95
2019-04-05T12:56:28.898Z,12.63
2019-04-05T12:59:00.190Z,12.50
2019-04-05T13:01:33.628Z,13.00
2019-04-05T13:04:05.308Z,12.90
2019-04-05T13:06:36.762Z,13.10
2019-04-05T13:09:10.008Z,13.18
2019-04-05T13:11:41.598Z,14.15
2019-04-05T13:14:14.699Z,14.80
2019-04-05T13:16:49.315Z,14.80
2019-04-05T13:19:28.558Z,13.15
2019-04-05T13:22:02.773Z,14.23
2019-04-05T13:24:34.861Z,15.20
2019-04-05T13:27:06.318Z,14.40
2019-04-05T13:29:37.799Z,14.55
2019-04-05T13:32:09.247Z,12.98
2019-04-05T13:34:40.602Z,12.55
2019-04-05T13:37:20.015Z,13.15
2019-04-05T13:39:45.107Z,13.15
2019-04-05T13:42:16.846Z,11.70
2019-04-05T13:44:48.199Z,13.05
2019-04-05T13:47:19.589Z,12.28
2019-04-05T13:49:50.995Z,12.70
2019-04-05T13:52:22.861Z,12.43
2019-04-05T13:54:54.352Z,12.15
2019-04-05T13:57:28.503Z,12.10
2019-04-05T14:00:00.544Z,12.15
2019-04-05T14:02:31.993Z,13.35
2019-04-05T14:05:04.052Z,12.40
2019-04-05T14:07:38.100Z,13.58
2019-04-05T14:10:12.448Z,12.43
2019-04-05T14:12:43.631Z,14.10
2019-04-05T14:15:15.125Z,13.35
2019-04-05T14:17:49.388Z,13.45
2019-04-05T14:20:20.938Z,15.08
2019-04-05T14:22:52.398Z,12.90
2019-04-05T14:25:26.085Z,14.60
2019-04-05T14:27:58.820Z,15.98
2019-04-05T14:30:32.511Z,15.63
2019-04-05T14:33:03.422Z,18.20
2019-04-05T14:35:36.299Z,17.12
2019-04-05T14:38:07.733Z,18.32
2019-04-05T14:40:39.143Z,17.90
2019-04-05T14:43:14.677Z,18.02
2019-04-05T14:45:45.453Z,18.05
2019-04-05T14:48:16.750Z,18.37
2019-04-05T14:50:49.102Z,18.20
2019-04-05T14:53:20.451Z,19.00
2019-04-05T14:55:53.031Z,18.37
2019-04-05T14:58:24.397Z,18.30
2019-04-05T15:00:55.744Z,18.50
2019-04-05T15:03:27.330Z,18.82
2019-04-05T15:06:00.373Z,18.98
2019-04-05T15:08:33.265Z,18.48
2019-04-05T15:11:04.979Z,19.40
2019-04-05T15:13:36.639Z,18.48
2019-04-05T15:16:11.670Z,18.27
2019-04-05T15:18:42.895Z,18.12
2019-04-05T15:21:14.403Z,17.00
2019-04-05T15:23:46.345Z,16.55
2019-04-05T15:26:21.546Z,16.40
2019-04-05T15:28:55.209Z,16.07
2019-04-05T15:31:27.545Z,15.43
2019-04-05T15:33:58.920Z,16.17
2019-04-05T15:36:32.160Z,16.27
2019-04-05T15:39:05.096Z,16.73
2019-04-05T15:41:36.744Z,16.10
2019-04-05T15:44:08.128Z,15.55
2019-04-05T15:46:40.447Z,16.30
2019-04-05T15:49:12.814Z,16.35
2019-04-05T15:51:44.141Z,16.42
2019-04-05T15:54:15.482Z,15.83
2019-04-05T15:56:46.898Z,16.07
2019-04-05T15:59:18.328Z,15.18
2019-04-05T16:01:49.708Z,14.30
2019-04-05T16:04:22.837Z,14.35
2019-04-05T16:06:54.151Z,16.32
2019-04-05T16:09:25.532Z,16.95
2019-04-05T16:11:57.101Z,16.30
2019-04-05T16:14:28.547Z,14.90
2019-04-05T16:17:01.848Z,17.15
2019-04-05T16:19:33.364Z,16.75
2019-04-05T16:22:04.734Z,17.67
2019-04-05T16:24:39.028Z,15.85
2019-04-05T16:27:10.267Z,16.27
2019-04-05T16:29:41.661Z,17.17
2019-04-05T16:32:13.011Z,19.07
2019-04-05T16:34:44.329Z,20.62
2019-04-05T16:37:15.677Z,20.20
2019-04-05T16:39:46.897Z,20.82
2019-04-05T16:42:19.253Z,21.42
2019-04-05T16:44:50.701Z,19.57
2019-04-05T16:47:22.332Z,20.17
2019-04-05T16:49:55.232Z,20.02
2019-04-05T16:52:28.624Z,18.85
2019-04-05T16:55:01.333Z,18.02
2019-04-05T16:57:34.019Z,18.75
2019-04-05T17:00:10.786Z,19.00
2019-04-05T17:02:42.139Z,17.85
2019-04-05T17:05:14.116Z,18.50
2019-04-05T17:07:45.618Z,19.00
2019-04-05T17:10:16.961Z,17.85
2019-04-05T17:12:48.273Z,17.42
2019-04-05T17:15:19.713Z,17.95
2019-04-05T17:17:51.094Z,17.70
2019-04-05T17:20:22.401Z,17.90
2019-04-05T17:22:58.353Z,19.02
2019-04-05T17:25:27.907Z,18.32
2019-04-05T17:28:00.360Z,18.30
2019-04-05T17:30:31.808Z,17.82
2019-04-05T17:33:03.178Z,17.92
2019-04-05T17:35:34.645Z,17.98
2019-04-05T17:38:07.119Z,17.85
2019-04-05T17:40:38.644Z,17.48
2019-04-05T17:43:09.993Z,18.20
2019-04-05T17:45:42.326Z,17.52
2019-04-05T17:48:19.690Z,17.40
2019-04-05T17:50:52.689Z,17.73
2019-04-05T17:53:23.959Z,19.80
2019-04-05T17:55:59.054Z,19.60
2019-04-05T17:58:29.806Z,21.07
2019-04-05T18:01:01.441Z,26.50
2019-04-05T18:03:32.831Z,31.00
2019-04-05T18:06:04.249Z,29.80
2019-04-05T18:08:35.567Z,32.38
2019-04-05T18:11:07.939Z,34.50
2019-04-05T18:13:39.222Z,42.48
2019-04-05T18:16:11.715Z,42.13
2019-04-05T18:18:43.154Z,45.38
2019-04-05T18:21:15.059Z,45.33
2019-04-05T18:23:46.355Z,48.92
2019-04-05T18:26:19.149Z,51.08
2019-04-05T18:28:50.486Z,49.13
2019-04-05T18:31:22.816Z,50.48
2019-04-05T18:33:54.159Z,50.03
2019-04-05T18:36:25.533Z,50.33
2019-04-05T18:38:56.848Z,51.08
2019-04-05T18:41:28.177Z,48.70
2019-04-05T18:44:00.418Z,48.08
2019-04-05T18:46:31.748Z,50.12
2019-04-05T18:49:03.095Z,48.40
2019-04-05T18:51:34.491Z,49.85
2019-04-05T18:54:05.910Z,51.00
2019-04-05T18:56:38.342Z,49.30
2019-04-05T18:59:10.778Z,52.55
2019-04-05T19:01:42.374Z,52.27
2019-04-05T19:04:15.287Z,54.73
2019-04-05T19:06:46.599Z,52.15
2019-04-05T19:09:18.278Z,52.33
2019-04-05T19:11:49.588Z,50.50
2019-04-05T19:14:21.868Z,52.48
2019-04-05T19:16:53.201Z,54.05
2019-04-05T19:19:24.613Z,76.22
2019-04-05T19:21:57.369Z,57.17
2019-04-05T19:24:28.705Z,52.90
2019-04-05T19:27:00.061Z,49.08
2019-04-05T19:29:31.602Z,49.27
2019-04-05T19:49:54.588Z,59.48
2019-04-05T19:52:25.924Z,64.07
2019-04-05T19:54:57.335Z,60.23
2019-04-05T19:57:28.658Z,57.48
2019-04-05T19:59:59.958Z,53.20
2019-04-05T20:02:31.276Z,48.15
2019-04-05T20:05:02.630Z,44.20
2019-04-05T20:07:34.990Z,46.63
2019-04-05T20:10:06.482Z,50.38
2019-04-05T20:12:38.899Z,48.68
2019-04-05T20:15:10.223Z,50.50
2019-04-05T20:17:41.557Z,55.28
2019-04-05T20:20:12.895Z,52.90
2019-04-05T20:22:45.376Z,54.95
2019-04-05T20:25:16.729Z,61.60
2019-04-05T20:27:48.087Z,66.60
2019-04-05T20:30:21.016Z,57.70
2019-04-05T20:32:53.426Z,60.55
2019-04-05T20:35:24.767Z,55.25
2019-04-05T20:37:56.104Z,45.40
2019-04-05T20:40:27.424Z,44.50
2019-04-05T20:42:59.990Z,42.20
2019-04-05T20:45:31.582Z,42.25
2019-04-05T20:48:02.904Z,41.95
2019-04-05T20:50:34.308Z,40.65
2019-04-05T20:53:06.538Z,38.63
2019-04-05T20:55:37.870Z,39.20
2019-04-05T20:58:09.261Z,38.20
2019-04-05T21:00:43.197Z,39.13
2019-04-05T21:03:14.479Z,41.48
2019-04-05T21:05:45.819Z,39.20
2019-04-05T21:08:17.149Z,38.88
2019-04-05T21:10:48.480Z,39.20
2019-04-05T21:13:19.740Z,38.92
2019-04-05T21:15:50.963Z,39.55
2019-04-05T21:18:23.319Z,40.58
2019-04-05T21:20:54.622Z,38.53
2019-04-05T21:23:25.942Z,39.25
2019-04-05T21:25:57.234Z,40.38
2019-04-05T21:28:29.580Z,40.90
2019-04-05T21:31:00.922Z,44.35
2019-04-05T21:33:32.215Z,43.15
2019-04-05T21:36:03.566Z,46.95
2019-04-05T21:38:35.378Z,47.75
2019-04-05T21:41:07.789Z,46.95
2019-04-05T21:43:39.283Z,49.90
2019-04-05T21:46:12.816Z,47.13
2019-04-05T21:48:44.337Z,49.03
2019-04-05T21:51:15.870Z,50.17
2019-04-05T21:53:47.540Z,48.68
2019-04-05T21:56:19.083Z,50.75
2019-04-05T21:58:50.662Z,52.53
2019-04-05T22:01:23.186Z,52.90
2019-04-05T22:03:56.332Z,51.03
2019-04-05T22:06:27.981Z,49.08
2019-04-05T22:08:59.484Z,49.18
2019-04-05T22:11:32.565Z,49.98
2019-04-05T22:14:04.073Z,49.23
2019-04-05T22:16:35.713Z,48.10
2019-04-05T22:19:07.507Z,49.98
2019-04-05T22:21:39.158Z,48.68
2019-04-05T22:24:10.795Z,49.63
2019-04-05T22:26:42.345Z,49.30
2019-04-05T22:29:13.869Z,49.42
2019-04-05T22:31:45.409Z,47.85
2019-04-05T22:34:16.945Z,48.35
2019-04-05T22:36:48.502Z,47.98
2019-04-05T22:39:21.506Z,46.85
2019-04-05T22:41:54.349Z,47.55
2019-04-05T22:44:29.230Z,47.03
2019-04-05T22:46:59.114Z,49.50
2019-04-05T22:49:30.689Z,49.67
2019-04-05T22:52:02.253Z,47.20
2019-04-05T22:54:34.249Z,49.25
2019-04-05T22:57:05.793Z,48.68
2019-04-05T22:59:37.546Z,49.37
2019-04-05T23:02:10.071Z,44.85
2019-04-05T23:04:41.587Z,45.50
2019-04-05T23:07:13.335Z,45.17
2019-04-05T23:09:44.803Z,44.38
2019-04-05T23:12:16.442Z,47.95
2019-04-05T23:14:48.127Z,47.40
2019-04-05T23:17:19.652Z,44.38
2019-04-05T23:19:51.211Z,48.05
2019-04-05T23:22:23.543Z,48.08
2019-04-05T23:24:55.071Z,50.58
2019-04-05T23:27:26.530Z,52.27
2019-04-05T23:29:58.129Z,49.77
2019-04-05T23:32:29.688Z,49.90
2019-04-05T23:35:01.181Z,51.10
2019-04-05T23:37:33.709Z,48.58
2019-04-05T23:40:06.268Z,50.00
2019-04-05T23:42:37.801Z,48.55
2019-04-05T23:45:09.903Z,47.83
2019-04-05T23:47:41.444Z,46.13
2019-04-05T23:50:13.160Z,44.05
2019-04-05T23:52:44.719Z,45.00
2019-04-05T23:55:17.426Z,43.87
2019-04-05T23:57:48.984Z,43.58
